Time;durP1;ratioP1;P1;durP2;ratioP2;P2;SDS_P1;SDS_P2;PMS_P1;PMS_P2;Temp;Humidity;BMP_temperature;BMP_pressure;BME280_temperature;BME280_humidity;BME280_pressure;Samples;Min_cycle;Max_cycle;Signal;HPM_P1;HPM_P2
2021/11/23 00:02:55;;;;;;;9.45;5.47;;;;;;;5.57;100.00;100421.00;6298535;28;20472;-70
2021/11/23 00:05:56;;;;;;;9.40;5.35;;;;;;;5.56;100.00;100424.47;6281895;28;20503;-70
2021/11/23 00:08:57;;;;;;;10.40;5.93;;;;;;;5.60;100.00;100426.94;6298403;28;20044;-70
2021/11/23 00:11:57;;;;;;;9.60;5.75;;;;;;;5.64;100.00;100425.06;6299454;28;20048;-72
2021/11/23 00:14:59;;;;;;;9.60;5.57;;;;;;;5.58;100.00;100430.44;6299708;28;20135;-72
2021/11/23 00:18:00;;;;;;;9.77;5.57;;;;;;;5.52;100.00;100431.53;6299360;28;20048;-72
2021/11/23 00:21:01;;;;;;;10.13;5.97;;;;;;;5.45;100.00;100442.97;6299308;28;20063;-70
2021/11/23 00:24:01;;;;;;;12.20;6.40;;;;;;;5.46;100.00;100449.84;6297764;28;20048;-70
2021/11/23 00:27:04;;;;;;;8.38;5.28;;;;;;;5.40;100.00;100439.69;6281236;28;20094;-70
2021/11/23 00:30:05;;;;;;;8.95;5.32;;;;;;;5.41;100.00;100454.31;6281448;28;20041;-70
2021/11/23 00:33:06;;;;;;;9.88;6.40;;;;;;;5.35;100.00;100459.69;6298872;28;20045;-70
2021/11/23 00:36:07;;;;;;;8.85;5.50;;;;;;;5.22;100.00;100461.84;6298968;28;20044;-69
2021/11/23 00:39:08;;;;;;;10.40;5.97;;;;;;;5.08;100.00;100458.84;6281004;28;20078;-70
2021/11/23 00:42:09;;;;;;;9.15;5.85;;;;;;;5.06;100.00;100461.47;6280786;28;20085;-70
2021/11/23 00:45:10;;;;;;;11.05;5.45;;;;;;;5.14;100.00;100469.00;6298695;28;20132;-70
2021/11/23 00:48:11;;;;;;;12.15;6.35;;;;;;;5.02;100.00;100475.41;6298555;28;20122;-72
2021/11/23 00:51:12;;;;;;;10.00;6.05;;;;;;;5.05;100.00;100477.91;6264419;28;20048;-73
2021/11/23 00:54:13;;;;;;;11.77;5.95;;;;;;;5.04;100.00;100481.38;6320213;28;20043;-70
2021/11/23 00:57:14;;;;;;;10.82;6.22;;;;;;;4.98;100.00;100484.16;6323156;28;20043;-72
2021/11/23 01:00:15;;;;;;;11.65;6.10;;;;;;;4.94;100.00;100486.00;6297091;28;20496;-71
2021/11/23 01:03:17;;;;;;;10.35;5.95;;;;;;;4.99;100.00;100491.03;6314069;28;20036;-72
2021/11/23 01:06:19;;;;;;;9.90;6.68;;;;;;;4.86;100.00;100495.72;6298026;28;20465;-70
2021/11/23 01:09:20;;;;;;;11.38;6.22;;;;;;;4.81;100.00;100497.59;6297046;28;20044;-72
2021/11/23 01:12:21;;;;;;;9.80;6.07;;;;;;;4.77;100.00;100499.41;6296955;28;20562;-72
2021/11/23 01:15:23;;;;;;;12.57;6.40;;;;;;;4.76;100.00;100505.50;6296673;28;20048;-70
2021/11/23 01:18:24;;;;;;;10.85;6.53;;;;;;;4.67;100.00;100505.75;6297977;28;20504;-72
2021/11/23 01:21:25;;;;;;;10.90;6.53;;;;;;;4.62;100.00;100516.22;6297877;28;20040;-72
2021/11/23 01:24:26;;;;;;;14.98;5.97;;;;;;;4.68;100.00;100515.22;6296425;28;20076;-72
2021/11/23 01:27:27;;;;;;;10.32;6.30;;;;;;;4.69;100.00;100514.31;6296390;28;20515;-72
2021/11/23 01:30:28;;;;;;;10.38;5.82;;;;;;;4.65;100.00;100515.28;6296503;28;20489;-72
2021/11/23 01:33:29;;;;;;;12.57;6.85;;;;;;;4.52;100.00;100508.81;6297521;28;20036;-71
2021/11/23 01:36:31;;;;;;;10.45;6.40;;;;;;;4.61;100.00;100514.56;6296327;28;20473;-69
2021/11/23 01:39:32;;;;;;;13.85;7.53;;;;;;;4.59;100.00;100512.88;6296285;28;20041;-72
2021/11/23 01:42:33;;;;;;;9.75;6.40;;;;;;;4.56;100.00;100508.66;6297357;28;20052;-73
2021/11/23 01:45:36;;;;;;;12.65;7.32;;;;;;;4.53;100.00;100507.91;6296154;28;20469;-72
2021/11/23 01:48:37;;;;;;;12.20;7.03;;;;;;;4.55;100.00;100514.72;6297122;28;20488;-72
2021/11/23 01:51:38;;;;;;;15.40;7.40;;;;;;;4.49;100.00;100512.31;6296119;28;20036;-70
2021/11/23 01:54:40;;;;;;;10.27;6.35;;;;;;;4.50;100.00;100506.25;6296292;28;20075;-72
2021/11/23 01:57:42;;;;;;;11.90;7.15;;;;;;;4.46;100.00;100514.97;6279648;28;20053;-72
2021/11/23 02:00:45;;;;;;;14.17;7.97;;;;;;;4.50;100.00;100513.16;6313993;28;20048;-69
2021/11/23 02:03:46;;;;;;;16.45;8.18;;;;;;;4.42;100.00;100501.28;6323041;28;20815;-70
2021/11/23 02:06:47;;;;;;;15.50;8.32;;;;;;;4.44;100.00;100502.09;6321359;28;20075;-71
2021/11/23 02:09:48;;;;;;;11.85;7.60;;;;;;;4.55;100.00;100504.41;6322706;28;20044;-72
2021/11/23 02:12:49;;;;;;;13.50;7.50;;;;;;;4.48;100.00;100504.59;6321402;28;20495;-72
2021/11/23 02:15:50;;;;;;;13.90;7.47;;;;;;;4.38;100.00;100515.19;6321102;28;20395;-70
2021/11/23 02:18:51;;;;;;;12.98;7.53;;;;;;;4.55;100.00;100526.78;6299317;28;20040;-69
2021/11/23 02:21:52;;;;;;;13.13;7.13;;;;;;;4.47;100.00;100518.41;6296006;28;20040;-70
2021/11/23 02:24:52;;;;;;;13.20;7.90;;;;;;;4.53;100.00;100518.22;6278971;28;20079;-70
2021/11/23 02:27:53;;;;;;;12.70;8.23;;;;;;;4.51;100.00;100525.19;6296728;28;20487;-70
2021/11/23 02:30:57;;;;;;;14.27;7.53;;;;;;;4.49;100.00;100524.38;6261819;28;20060;-71
2021/11/23 02:33:58;;;;;;;13.77;8.10;;;;;;;4.49;100.00;100532.13;6297142;28;20491;-71
2021/11/23 02:36:59;;;;;;;14.77;7.80;;;;;;;4.57;100.00;100527.59;6295890;28;20493;-70
2021/11/23 02:40:00;;;;;;;9.52;5.93;;;;;;;4.60;100.00;100535.28;6296908;28;20056;-72
2021/11/23 02:43:01;;;;;;;13.02;7.22;;;;;;;4.68;100.00;100538.47;6295787;28;20064;-72
2021/11/23 02:46:02;;;;;;;15.10;7.28;;;;;;;4.74;100.00;100546.06;6295605;28;20508;-72
2021/11/23 02:49:04;;;;;;;11.73;6.97;;;;;;;4.72;100.00;100549.59;6295442;28;20049;-70
2021/11/23 02:52:10;;;;;;;12.00;7.47;;;;;;;4.74;100.00;100551.22;6295668;28;20084;-71
2021/11/23 02:55:12;;;;;;;11.40;7.40;;;;;;;4.78;100.00;100552.84;6295578;28;20044;-70
2021/11/23 02:58:13;;;;;;;15.20;7.07;;;;;;;4.86;100.00;100557.78;6295736;28;20428;-70
2021/11/23 03:01:17;;;;;;;13.90;7.65;;;;;;;4.85;100.00;100562.09;6296757;28;20044;-72
2021/11/23 03:04:18;;;;;;;14.88;7.85;;;;;;;4.88;100.00;100553.41;6295606;28;20405;-72
2021/11/23 03:07:20;;;;;;;13.75;7.55;;;;;;;4.92;100.00;100562.78;6296341;28;20045;-70
2021/11/23 03:10:22;;;;;;;13.80;7.38;;;;;;;4.91;100.00;100568.84;6295232;28;20098;-70
2021/11/23 03:13:22;;;;;;;16.42;8.10;;;;;;;4.87;100.00;100577.56;6295173;28;20044;-71
2021/11/23 03:16:23;;;;;;;14.40;7.05;;;;;;;4.92;100.00;100577.44;6296577;28;20455;-71
2021/11/23 03:19:24;;;;;;;11.25;6.95;;;;;;;4.91;100.00;100574.00;6295413;28;20048;-72
2021/11/23 03:22:25;;;;;;;13.73;7.95;;;;;;;4.87;100.00;100576.72;6295253;28;20049;-73
2021/11/23 03:25:26;;;;;;;11.45;6.97;;;;;;;4.88;100.00;100578.41;6295176;28;20052;-70
2021/11/23 03:28:27;;;;;;;11.45;6.82;;;;;;;4.81;100.00;100573.41;6317973;28;20044;-72
2021/11/23 03:31:28;;;;;;;12.80;7.90;;;;;;;4.84;100.00;100573.34;6297730;28;20094;-70
2021/11/23 03:34:36;;;;;;;13.90;7.10;;;;;;;4.78;100.00;100573.53;6296388;28;20106;-70
2021/11/23 03:37:37;;;;;;;13.75;7.82;;;;;;;4.73;100.00;100575.38;6295346;28;20488;-72
2021/11/23 03:40:41;;;;;;;13.82;7.63;;;;;;;4.69;100.00;100578.09;6294947;28;20041;-70
2021/11/23 03:43:42;;;;;;;11.07;6.63;;;;;;;4.65;100.00;100595.41;6298840;28;20553;-70
2021/11/23 03:46:43;;;;;;;12.57;7.78;;;;;;;4.51;100.00;100582.91;6299167;28;20123;-70
2021/11/23 03:49:46;;;;;;;15.05;8.48;;;;;;;4.28;100.00;100587.81;6300706;28;20093;-70
2021/11/23 03:52:48;;;;;;;12.98;8.38;;;;;;;4.17;100.00;100595.88;6282661;28;20044;-72
2021/11/23 03:55:50;;;;;;;14.57;8.60;;;;;;;4.11;100.00;100589.13;6300604;28;20048;-70
2021/11/23 03:58:50;;;;;;;14.68;8.30;;;;;;;4.15;100.00;100597.63;6300756;28;20457;-70
2021/11/23 04:01:52;;;;;;;13.73;8.77;;;;;;;4.09;100.00;100597.78;6300167;28;20066;-70
2021/11/23 04:04:53;;;;;;;17.00;8.43;;;;;;;3.97;100.00;100598.94;6298875;28;20052;-71
2021/11/23 04:07:54;;;;;;;15.98;8.40;;;;;;;4.01;100.00;100603.16;6298848;28;20044;-71
2021/11/23 04:10:55;;;;;;;15.63;8.70;;;;;;;4.02;100.00;100605.69;6282918;28;20499;-70
2021/11/23 04:13:57;;;;;;;18.30;9.90;;;;;;;4.00;100.00;100607.47;6300146;28;20162;-72
2021/11/23 04:16:58;;;;;;;15.80;8.57;;;;;;;3.94;100.00;100606.78;6305606;28;20044;-71
2021/11/23 04:19:58;;;;;;;15.18;8.90;;;;;;;3.89;100.00;100611.19;6324189;28;20097;-72
2021/11/23 04:23:00;;;;;;;13.82;8.13;;;;;;;3.86;100.00;100608.72;6323938;28;20446;-69
2021/11/23 04:26:01;;;;;;;15.55;8.70;;;;;;;3.93;100.00;100610.22;6323600;28;20139;-72
2021/11/23 04:29:02;;;;;;;14.40;8.30;;;;;;;3.92;100.00;100618.88;6323743;28;20074;-72
2021/11/23 04:32:04;;;;;;;13.20;8.00;;;;;;;3.87;100.00;100624.16;6323909;28;20044;-69
2021/11/23 04:35:06;;;;;;;15.98;8.88;;;;;;;3.85;100.00;100618.19;6323812;28;20540;-70
2021/11/23 04:38:10;;;;;;;17.52;8.82;;;;;;;3.88;100.00;100625.84;6323784;28;20044;-72
2021/11/23 04:41:11;;;;;;;11.98;7.35;;;;;;;3.69;100.00;100635.75;6301567;28;20137;-70
2021/11/23 04:44:12;;;;;;;15.32;8.60;;;;;;;3.75;100.00;100639.94;6298941;28;20037;-72
2021/11/23 04:47:13;;;;;;;16.95;8.63;;;;;;;3.73;100.00;100649.47;6315558;28;20673;-72
2021/11/23 04:50:14;;;;;;;15.30;8.57;;;;;;;3.70;100.00;100650.34;6297953;28;20074;-70
2021/11/23 04:53:15;;;;;;;13.95;6.95;;;;;;;3.59;100.00;100650.59;6331384;28;20056;-70
2021/11/23 04:56:16;;;;;;;16.38;8.68;;;;;;;3.61;100.00;100654.00;6307039;28;20048;-70
2021/11/23 04:59:16;;;;;;;16.33;8.73;;;;;;;3.69;100.00;100655.56;6322562;28;20043;-71
2021/11/23 05:02:18;;;;;;;13.20;7.93;;;;;;;3.61;100.00;100659.16;6312998;28;20036;-71
2021/11/23 05:05:19;;;;;;;16.20;8.38;;;;;;;3.58;100.00;100651.50;6298443;28;20036;-72
2021/11/23 05:08:20;;;;;;;13.65;7.72;;;;;;;3.51;100.00;100665.41;6298098;28;20448;-72
2021/11/23 05:11:21;;;;;;;15.05;8.60;;;;;;;3.39;100.00;100671.69;6297114;28;20041;-70
2021/11/23 05:14:22;;;;;;;15.32;8.70;;;;;;;3.34;100.00;100677.84;6298145;28;20090;-70
2021/11/23 05:17:24;;;;;;;18.55;8.68;;;;;;;3.28;100.00;100683.97;6283104;28;20044;-70
2021/11/23 05:20:24;;;;;;;16.65;9.35;;;;;;;3.15;100.00;100685.09;6318780;28;20041;-69
2021/11/23 05:23:25;;;;;;;14.35;8.63;;;;;;;3.31;100.00;100691.63;6295435;28;20043;-69
2021/11/23 05:26:27;;;;;;;10.80;5.93;;;;;;;3.32;100.00;100692.50;6296319;28;20068;-72
2021/11/23 05:29:28;;;;;;;14.75;8.73;;;;;;;3.27;100.00;100691.72;6296569;28;20143;-69
2021/11/23 05:32:30;;;;;;;19.48;8.65;;;;;;;3.32;100.00;100698.50;6280029;28;20453;-69
2021/11/23 05:35:31;;;;;;;13.10;7.40;;;;;;;3.27;100.00;100705.47;6297643;28;20045;-71
2021/11/23 05:38:31;;;;;;;9.20;5.95;;;;;;;3.36;100.00;100700.13;6297478;28;20055;-72
2021/11/23 05:41:36;;;;;;;16.50;8.32;;;;;;;3.26;100.00;100708.09;6296297;28;20040;-70
2021/11/23 05:44:36;;;;;;;15.80;8.88;;;;;;;3.21;100.00;100713.31;6297536;28;20048;-70
2021/11/23 05:47:38;;;;;;;18.38;8.20;;;;;;;3.29;100.00;100708.88;6295916;28;20071;-70
2021/11/23 05:50:39;;;;;;;17.45;8.98;;;;;;;3.35;100.00;100710.47;6297330;28;20037;-71
2021/11/23 05:53:40;;;;;;;17.27;8.63;;;;;;;3.27;100.00;100709.78;6297252;28;20174;-71
2021/11/23 05:56:41;;;;;;;12.57;6.90;;;;;;;3.20;100.00;100725.38;6296006;28;20044;-72
2021/11/23 05:59:42;;;;;;;15.70;8.02;;;;;;;3.15;100.00;100716.91;6304235;28;20119;-70
2021/11/23 06:02:42;;;;;;;18.00;8.40;;;;;;;3.13;100.00;100726.41;6307484;28;20068;-70
2021/11/23 06:05:43;;;;;;;13.18;7.53;;;;;;;3.11;100.00;100725.59;6276811;28;20051;-70
2021/11/23 06:08:44;;;;;;;16.40;8.57;;;;;;;3.18;100.00;100719.41;6301102;28;20044;-70
2021/11/23 06:11:45;;;;;;;14.40;7.10;;;;;;;3.13;100.00;100720.38;6320790;28;20044;-69
2021/11/23 06:14:46;;;;;;;16.52;8.35;;;;;;;3.11;100.00;100717.84;6313251;28;20043;-70
2021/11/23 06:17:47;;;;;;;12.50;7.90;;;;;;;3.14;100.00;100732.41;6319768;28;20047;-71
2021/11/23 06:20:51;;;;;;;16.73;8.48;;;;;;;3.21;100.00;100733.97;6296400;28;20114;-71
2021/11/23 06:23:53;;;;;;;16.60;8.73;;;;;;;3.29;100.00;100741.56;6290586;28;20541;-71
2021/11/23 06:26:54;;;;;;;14.45;8.10;;;;;;;3.26;100.00;100734.72;6310594;28;20445;-71
2021/11/23 06:29:54;;;;;;;12.10;7.18;;;;;;;3.31;100.00;100737.22;6313712;28;20054;-71
2021/11/23 06:32:56;;;;;;;18.02;8.25;;;;;;;3.35;99.88;100744.84;6302702;28;20542;-70
2021/11/23 06:35:56;;;;;;;13.55;7.63;;;;;;;3.50;97.44;100753.16;6314729;28;20178;-70
2021/11/23 06:38:57;;;;;;;14.20;8.20;;;;;;;3.53;97.56;100758.28;6296117;28;20044;-70
2021/11/23 06:41:58;;;;;;;14.00;7.43;;;;;;;3.56;96.68;100764.22;6294728;28;20072;-72
2021/11/23 06:44:59;;;;;;;22.48;7.82;;;;;;;3.62;96.61;100769.25;6296110;28;20049;-71
2021/11/23 06:48:00;;;;;;;16.00;7.53;;;;;;;3.66;94.85;100772.59;6294646;28;20611;-72
2021/11/23 06:51:01;;;;;;;18.02;8.27;;;;;;;3.63;94.71;100773.53;6294709;28;20075;-71
2021/11/23 06:54:02;;;;;;;16.52;7.53;;;;;;;3.77;94.42;100772.41;6278032;28;20047;-72
2021/11/23 06:57:03;;;;;;;15.10;8.52;;;;;;;3.80;93.29;100775.75;6295913;28;20405;-71
2021/11/23 07:00:06;;;;;;;13.75;7.30;;;;;;;3.87;92.60;100781.66;6294724;28;20083;-71
2021/11/23 07:03:08;;;;;;;14.10;8.43;;;;;;;3.94;92.74;100783.19;6294517;28;20048;-70
2021/11/23 07:06:09;;;;;;;14.68;8.35;;;;;;;4.02;92.64;100783.03;6295876;28;20036;-71
2021/11/23 07:09:11;;;;;;;18.23;6.70;;;;;;;4.04;91.05;100799.34;6295544;28;20121;-71
2021/11/23 07:12:12;;;;;;;15.87;6.87;;;;;;;4.08;90.54;100805.28;6295870;28;20063;-71
2021/11/23 07:15:13;;;;;;;19.58;9.05;;;;;;;4.21;91.05;100814.47;6295700;28;20465;-71
2021/11/23 07:18:15;;;;;;;15.13;7.05;;;;;;;4.27;88.83;100796.25;6297907;28;20481;-71
2021/11/23 07:21:15;;;;;;;9.75;6.28;;;;;;;4.31;88.99;100810.78;6299409;28;20044;-71
2021/11/23 07:24:16;;;;;;;16.92;8.02;;;;;;;4.37;88.59;100808.06;6299122;28;20056;-71
2021/11/23 07:27:18;;;;;;;13.73;7.97;;;;;;;4.42;88.60;100813.97;6282698;28;20037;-71
2021/11/23 07:30:19;;;;;;;15.98;7.68;;;;;;;4.59;86.81;100813.59;6308072;28;20036;-71
2021/11/23 07:33:21;;;;;;;15.95;8.20;;;;;;;4.58;87.72;100809.28;6316638;28;20052;-71
2021/11/23 07:36:24;;;;;;;13.70;8.10;;;;;;;4.62;87.44;100821.25;6300125;28;20037;-72
2021/11/23 07:39:27;;;;;;;12.05;7.60;;;;;;;4.74;83.76;100817.53;6313426;28;20048;-71
2021/11/23 07:42:28;;;;;;;11.82;6.45;;;;;;;4.95;82.36;100823.03;6300020;28;20046;-71
2021/11/23 07:45:28;;;;;;;14.02;6.15;;;;;;;4.84;80.13;100824.16;6298808;28;20040;-71
2021/11/23 07:48:29;;;;;;;12.55;5.97;;;;;;;4.92;76.87;100842.09;6320896;28;20117;-72
2021/11/23 07:51:30;;;;;;;12.05;7.55;;;;;;;5.15;78.02;100835.47;6282114;28;20045;-72
2021/11/23 07:54:31;;;;;;;11.98;6.53;;;;;;;5.08;75.53;100841.69;6300645;28;20420;-72
2021/11/23 07:57:37;;;;;;;11.30;7.00;;;;;;;5.20;73.29;100852.56;6312255;28;20052;-71
2021/11/23 08:00:38;;;;;;;20.98;8.93;;;;;;;5.35;72.05;100853.88;6306981;28;20051;-71
2021/11/23 08:03:40;;;;;;;14.23;7.55;;;;;;;5.27;69.58;100852.41;6306890;28;20047;-70
2021/11/23 08:06:41;;;;;;;10.83;5.77;;;;;;;5.42;67.29;100857.19;6323644;28;20496;-71
2021/11/23 08:09:43;;;;;;;10.88;6.07;;;;;;;5.53;64.35;100859.47;6323286;28;20281;-71
2021/11/23 08:12:45;;;;;;;19.40;8.52;;;;;;;5.74;63.95;100863.19;6323248;28;20047;-71
2021/11/23 08:15:46;;;;;;;17.15;8.05;;;;;;;5.81;63.63;100869.91;6325052;28;20499;-70
2021/11/23 08:18:47;;;;;;;12.95;6.85;;;;;;;5.88;63.56;100855.03;6323239;28;20044;-70
2021/11/23 08:21:48;;;;;;;10.25;6.22;;;;;;;6.17;60.98;100862.84;6324371;28;20472;-70
2021/11/23 08:24:49;;;;;;;25.90;7.17;;;;;;;6.19;61.29;100868.81;6322997;28;20051;-70
2021/11/23 08:27:51;;;;;;;7.38;5.30;;;;;;;6.20;58.76;100869.69;6323187;28;20032;-70
2021/11/23 08:30:54;;;;;;;15.50;9.00;;;;;;;6.58;59.39;100857.28;6318911;28;20507;-70
2021/11/23 08:33:54;;;;;;;11.55;6.40;;;;;;;6.54;57.65;100860.88;6311004;28;20049;-70
2021/11/23 08:36:55;;;;;;;10.25;6.10;;;;;;;6.50;58.55;100878.25;6315423;28;20435;-70
2021/11/23 08:39:57;;;;;;;9.73;5.47;;;;;;;6.61;58.17;100876.19;6320800;28;20043;-70
2021/11/23 08:43:01;;;;;;;8.95;5.28;;;;;;;6.58;56.99;100884.06;6323849;28;20056;-71
2021/11/23 08:46:02;;;;;;;14.27;7.47;;;;;;;6.62;57.26;100898.63;6305780;28;20040;-71
2021/11/23 08:49:04;;;;;;;11.30;6.20;;;;;;;6.74;56.16;100896.56;6304638;28;20268;-71
2021/11/23 08:52:05;;;;;;;7.45;4.53;;;;;;;6.85;56.14;100887.50;6280834;28;20051;-71
2021/11/23 08:55:06;;;;;;;15.20;6.93;;;;;;;6.83;55.46;100897.09;6309117;28;20075;-71
2021/11/23 08:58:12;;;;;;;9.85;5.47;;;;;;;6.79;55.32;100886.88;6323479;28;20070;-70
2021/11/23 09:01:12;;;;;;;9.35;4.88;;;;;;;6.82;54.17;100889.38;6322612;28;20056;-70
2021/11/23 09:04:13;;;;;;;12.55;6.10;;;;;;;6.86;54.94;100890.97;6317172;28;20051;-70
2021/11/23 09:07:17;;;;;;;13.32;7.05;;;;;;;6.94;54.55;100893.31;6291038;28;20047;-71
2021/11/23 09:10:23;;;;;;;18.77;7.85;;;;;;;7.11;54.56;100891.03;6310064;28;20455;-71
2021/11/23 09:13:24;;;;;;;15.98;6.35;;;;;;;6.98;54.11;100888.00;6323504;28;20044;-71
2021/11/23 09:16:25;;;;;;;8.23;5.00;;;;;;;7.30;54.02;100882.63;6322096;28;20037;-71
2021/11/23 09:19:27;;;;;;;9.27;5.47;;;;;;;7.07;53.52;100887.66;6323102;28;20044;-70
2021/11/23 09:22:28;;;;;;;10.32;4.88;;;;;;;7.16;53.82;100889.09;6321822;28;20439;-70
2021/11/23 09:25:29;;;;;;;7.00;3.85;;;;;;;7.07;51.22;100902.41;6323234;28;20052;-71
2021/11/23 09:28:30;;;;;;;6.88;4.30;;;;;;;7.11;50.99;100901.41;6299213;28;20090;-71
2021/11/23 09:31:31;;;;;;;6.15;4.15;;;;;;;7.29;50.60;100904.25;6314673;28;20410;-71
2021/11/23 09:34:32;;;;;;;5.80;3.65;;;;;;;7.24;51.33;100905.28;6323225;28;20385;-71
2021/11/23 09:37:32;;;;;;;5.47;3.60;;;;;;;7.23;50.54;100901.00;6321617;28;20044;-70
2021/11/23 09:40:34;;;;;;;8.18;4.22;;;;;;;7.28;51.28;100898.22;6302223;28;20082;-70
2021/11/23 09:43:37;;;;;;;8.27;4.13;;;;;;;7.41;49.93;100890.88;6306291;28;20047;-71
2021/11/23 09:46:39;;;;;;;8.60;4.25;;;;;;;7.66;50.07;100889.13;6300033;28;20051;-72
2021/11/23 09:49:40;;;;;;;4.85;3.33;;;;;;;7.65;48.84;100895.22;6304612;28;20049;-71
2021/11/23 09:52:42;;;;;;;7.57;4.15;;;;;;;7.86;50.72;100890.16;6296034;28;20044;-71
2021/11/23 09:55:42;;;;;;;7.47;4.33;;;;;;;7.80;49.58;100880.84;6310566;28;20072;-71
2021/11/23 09:58:43;;;;;;;7.32;4.22;;;;;;;8.07;47.78;100883.31;6321538;28;20058;-70
2021/11/23 10:01:47;;;;;;;6.28;4.00;;;;;;;7.96;46.78;100888.06;6321254;28;20044;-70
2021/11/23 10:05:05;;;;;;;7.80;4.13;;;;;;;7.94;45.20;100884.69;6320540;28;20122;-71
2021/11/23 10:08:16;;;;;;;7.78;3.58;;;;;;;8.25;47.58;100887.81;6308764;28;20131;-71
2021/11/23 10:11:26;;;;;;;6.77;3.93;;;;;;;8.18;47.06;100882.91;6317898;28;20118;-71
2021/11/23 10:14:27;;;;;;;6.25;3.80;;;;;;;8.37;48.29;100880.47;6281176;28;20059;-71
2021/11/23 10:17:28;;;;;;;8.45;4.72;;;;;;;8.27;45.84;100882.56;6296577;28;20045;-71
2021/11/23 10:20:36;;;;;;;8.23;3.92;;;;;;;8.38;47.24;100887.34;6296456;28;20043;-69
2021/11/23 10:23:41;;;;;;;6.80;3.63;;;;;;;8.58;46.45;100886.59;6296767;28;20037;-71
2021/11/23 10:26:43;;;;;;;7.13;3.90;;;;;;;8.27;45.23;100885.16;6315348;28;20488;-71
2021/11/23 10:29:51;;;;;;;6.50;3.63;;;;;;;8.47;46.00;100880.06;6321406;28;20098;-71
2021/11/23 10:32:53;;;;;;;7.35;4.10;;;;;;;8.52;45.94;100876.44;6320344;28;20135;-71
2021/11/23 10:36:12;;;;;;;7.68;3.92;;;;;;;8.24;46.40;100870.53;6303578;28;20040;-72
2021/11/23 10:39:19;;;;;;;6.80;4.18;;;;;;;8.52;46.97;100873.84;6303587;28;20044;-72
2021/11/23 10:42:31;;;;;;;8.20;4.85;;;;;;;8.45;45.83;100873.25;6310958;28;20094;-71
2021/11/23 10:45:36;;;;;;;6.85;3.78;;;;;;;8.24;46.81;100873.13;6296826;28;20477;-71
2021/11/23 10:49:01;;;;;;;7.45;4.03;;;;;;;8.24;45.25;100867.09;6295209;28;20049;-70
2021/11/23 10:52:22;;;;;;;4.60;2.88;;;;;;;8.22;43.39;100877.53;6311093;28;20461;-72
2021/11/23 10:55:23;;;;;;;5.70;3.35;;;;;;;8.20;45.12;100871.56;6306409;28;20066;-72
2021/11/23 10:58:24;;;;;;;6.07;3.95;;;;;;;8.25;44.02;100872.22;6321028;28;20529;-73
2021/11/23 11:01:25;;;;;;;5.28;3.45;;;;;;;8.22;43.43;100877.53;6314215;28;20036;-72
2021/11/23 11:04:35;;;;;;;4.85;3.42;;;;;;;8.30;44.26;100874.66;6317980;28;20032;-72
2021/11/23 11:07:37;;;;;;;9.27;4.00;;;;;;;8.20;44.66;100876.75;6321262;28;20523;-72
2021/11/23 11:10:38;;;;;;;6.90;3.88;;;;;;;8.06;44.61;100877.25;6302927;28;20055;-71
2021/11/23 11:13:39;;;;;;;5.85;3.00;;;;;;;7.83;43.06;100879.88;6296041;28;20113;-71
2021/11/23 11:16:41;;;;;;;6.13;3.35;;;;;;;8.15;43.24;100875.22;6295868;28;20040;-71
2021/11/23 11:19:46;;;;;;;7.00;3.50;;;;;;;8.35;43.34;100872.72;6325512;28;20068;-71
2021/11/23 11:22:51;;;;;;;8.98;3.63;;;;;;;8.35;47.16;100874.47;6310652;28;20032;-72
2021/11/23 11:29:26;;;;;;;6.00;3.70;;;;;;;8.31;45.59;100876.34;6295760;28;20043;-71
2021/11/23 11:32:33;;;;;;;5.80;3.58;;;;;;;8.17;46.11;100882.06;6295520;28;20033;-72
2021/11/23 11:35:43;;;;;;;7.80;3.75;;;;;;;8.30;46.36;100881.59;6294524;28;20119;-71
2021/11/23 11:38:44;;;;;;;6.78;3.80;;;;;;;8.04;46.70;100879.06;6295776;28;20072;-72
2021/11/23 11:41:44;;;;;;;5.47;3.67;;;;;;;8.22;46.14;100877.53;6294228;28;20036;-73
2021/11/23 11:44:48;;;;;;;6.50;3.85;;;;;;;8.10;47.25;100872.81;6294794;28;20074;-72
2021/11/23 11:47:51;;;;;;;7.55;4.05;;;;;;;8.20;46.96;100871.56;6295820;28;20058;-72
2021/11/23 11:51:04;;;;;;;13.10;6.63;;;;;;;8.03;48.10;100874.78;6277693;28;20041;-73
2021/11/23 11:54:20;;;;;;;8.20;5.07;;;;;;;8.35;47.55;100866.66;6316527;28;20040;-72
2021/11/23 11:57:29;;;;;;;5.65;3.65;;;;;;;8.34;47.37;100878.84;6318373;28;20154;-72
2021/11/23 12:00:34;;;;;;;7.47;4.40;;;;;;;8.16;47.97;100874.34;6319041;28;20040;-72
2021/11/23 12:03:36;;;;;;;17.08;4.40;;;;;;;7.93;50.76;100878.63;6321456;28;20044;-72
2021/11/23 12:07:00;;;;;;;6.05;4.20;;;;;;;8.12;48.98;100878.78;6324523;28;20066;-73
2021/11/23 12:10:17;;;;;;;6.93;3.80;;;;;;;7.93;51.89;100876.03;6311457;28;20068;-72
2021/11/23 12:13:44;;;;;;;7.50;4.75;;;;;;;8.12;49.14;100865.78;6299732;28;20059;-72
2021/11/23 12:16:57;;;;;;;8.45;4.50;;;;;;;8.13;50.18;100872.69;6300434;28;20047;-73
2021/11/23 12:20:21;;;;;;;12.90;4.65;;;;;;;8.08;50.69;100875.44;6300079;28;20533;-73
2021/11/23 12:23:50;;;;;;;7.72;4.40;;;;;;;7.88;50.40;100870.97;6300241;28;20040;-73
2021/11/23 12:26:54;;;;;;;6.97;4.50;;;;;;;7.94;51.18;100877.72;6299797;28;20135;-72
2021/11/23 12:29:56;;;;;;;12.90;4.90;;;;;;;7.93;50.92;100875.16;6335152;28;20071;-72
2021/11/23 12:32:57;;;;;;;;;;;;;;;7.92;51.23;100881.28;6308919;28;20044;-73
2021/11/23 12:35:59;;;;;;;9.45;4.97;;;;;;;8.04;51.39;100883.44;6310277;28;19920;-73
2021/11/23 12:39:15;;;;;;;7.53;4.60;;;;;;;8.07;50.59;100884.16;6324952;28;20054;-72
2021/11/23 12:42:16;;;;;;;7.85;4.80;;;;;;;7.99;50.28;100887.94;6323513;28;20043;-72
2021/11/23 12:45:36;;;;;;;8.50;4.72;;;;;;;7.56;51.02;100882.56;6323415;28;20082;-73
2021/11/23 12:48:39;;;;;;;9.35;5.18;;;;;;;7.56;52.17;100885.16;6324450;28;20093;-72
2021/11/23 12:51:43;;;;;;;8.18;4.95;;;;;;;7.76;52.14;100881.00;6321186;28;20036;-72
2021/11/23 12:54:48;;;;;;;9.70;5.53;;;;;;;7.65;52.97;100879.63;6289622;28;20044;-72
2021/11/23 12:57:52;;;;;;;9.23;5.60;;;;;;;7.79;54.37;100886.09;6309737;28;20523;-73
2021/11/23 13:00:53;;;;;;;11.35;6.25;;;;;;;7.93;52.67;100888.16;6323041;28;20453;-72
2021/11/23 13:03:59;;;;;;;6.68;4.70;;;;;;;7.79;52.57;100880.88;6322470;28;20044;-74
2021/11/23 13:07:12;;;;;;;7.90;4.93;;;;;;;7.86;53.69;100896.22;6322722;28;20384;-71
2021/11/23 13:10:16;;;;;;;8.20;5.13;;;;;;;7.85;53.12;100878.06;6322157;28;20484;-73
2021/11/23 13:13:23;;;;;;;8.02;5.10;;;;;;;7.81;52.77;100886.88;6321189;28;20122;-72
2021/11/23 13:16:24;;;;;;;6.82;4.50;;;;;;;7.76;53.74;100892.25;6321663;28;20071;-74
2021/11/23 13:19:25;;;;;;;8.23;4.78;;;;;;;7.64;53.91;100885.72;6287924;28;20054;-72
2021/11/23 13:22:25;;;;;;;8.48;4.88;;;;;;;7.44;54.02;100890.78;6314839;28;20049;-72
2021/11/23 13:25:30;;;;;;;9.50;5.32;;;;;;;7.45;55.02;100889.84;6310389;28;20060;-71
2021/11/23 13:28:41;;;;;;;10.48;6.03;;;;;;;7.40;54.94;100894.38;6320319;28;20052;-72
2021/11/23 13:31:43;;;;;;;12.85;5.68;;;;;;;7.23;55.61;100898.41;6297688;28;20059;-72
2021/11/23 13:34:44;;;;;;;10.77;6.28;;;;;;;7.16;55.70;100901.25;6297565;28;20052;-74
2021/11/23 13:37:49;;;;;;;10.32;6.53;;;;;;;6.99;56.50;100892.25;6295553;28;20052;-72
2021/11/23 13:40:49;;;;;;;8.02;5.50;;;;;;;7.02;56.79;100896.50;6296689;28;20044;-73
2021/11/23 13:44:07;;;;;;;11.98;5.65;;;;;;;7.05;59.33;100896.41;6295739;28;20059;-73
2021/11/23 13:47:18;;;;;;;14.70;6.15;;;;;;;6.95;57.75;100897.59;6311871;28;20415;-73
2021/11/23 13:50:19;;;;;;;9.60;6.00;;;;;;;6.75;57.80;100904.28;6321725;28;20414;-73
2021/11/23 13:53:20;;;;;;;9.00;5.95;;;;;;;6.74;58.57;100902.59;6321233;28;20040;-73
2021/11/23 13:56:23;;;;;;;9.63;5.85;;;;;;;6.63;59.31;100905.53;6320814;28;20052;-73
2021/11/23 13:59:25;;;;;;;13.05;6.63;;;;;;;6.54;59.75;100900.59;6321101;28;20101;-71
2021/11/23 14:02:46;;;;;;;10.15;6.07;;;;;;;6.47;60.03;100908.63;6322101;28;20047;-72
2021/11/23 14:05:48;;;;;;;15.82;7.57;;;;;;;6.37;60.44;100910.66;6318616;28;20115;-73
2021/11/23 14:08:59;;;;;;;14.68;7.50;;;;;;;6.28;60.43;100910.91;6303219;28;20044;-73
2021/11/23 14:12:00;;;;;;;19.38;7.80;;;;;;;6.27;61.70;100910.06;6296403;28;20047;-73
2021/11/23 14:15:08;;;;;;;13.55;7.78;;;;;;;6.23;61.81;100911.91;6296502;28;20048;-73